sensor_id;sensor_type;location;lat;lon;timestamp;P1;durP1;ratioP1;P2;durP2;ratioP2
75171;SDS011;63750;52.418;20.742;2023-05-16T00:01:35;10.70;;;9.80;;
75171;SDS011;63750;52.418;20.742;2023-05-16T00:04:02;11.50;;;10.30;;
75171;SDS011;63750;52.418;20.742;2023-05-16T00:06:30;11.70;;;10.70;;
75171;SDS011;63750;52.418;20.742;2023-05-16T00:08:57;11.80;;;10.70;;
75171;SDS011;63750;52.418;20.742;2023-05-16T00:11:24;11.70;;;10.70;;
75171;SDS011;63750;52.418;20.742;2023-05-16T00:13:51;12.40;;;11.30;;
75171;SDS011;63750;52.418;20.742;2023-05-16T00:16:18;11.30;;;10.40;;
75171;SDS011;63750;52.418;20.742;2023-05-16T00:18:45;12.20;;;11.10;;
75171;SDS011;63750;52.418;20.742;2023-05-16T00:21:12;12.10;;;11.00;;
75171;SDS011;63750;52.418;20.742;2023-05-16T00:23:39;11.50;;;10.40;;
75171;SDS011;63750;52.418;20.742;2023-05-16T00:26:06;12.50;;;11.40;;
75171;SDS011;63750;52.418;20.742;2023-05-16T00:28:33;12.80;;;11.70;;
75171;SDS011;63750;52.418;20.742;2023-05-16T00:31:01;13.50;;;12.30;;
75171;SDS011;63750;52.418;20.742;2023-05-16T00:33:27;12.30;;;11.30;;
75171;SDS011;63750;52.418;20.742;2023-05-16T00:35:54;12.10;;;11.10;;
75171;SDS011;63750;52.418;20.742;2023-05-16T00:38:23;13.20;;;12.10;;
75171;SDS011;63750;52.418;20.742;2023-05-16T00:40:50;12.50;;;11.40;;
75171;SDS011;63750;52.418;20.742;2023-05-16T00:43:17;13.30;;;12.10;;
75171;SDS011;63750;52.418;20.742;2023-05-16T00:45:45;12.90;;;11.80;;
75171;SDS011;63750;52.418;20.742;2023-05-16T00:48:12;13.30;;;12.00;;
75171;SDS011;63750;52.418;20.742;2023-05-16T00:50:40;13.80;;;12.60;;
75171;SDS011;63750;52.418;20.742;2023-05-16T00:53:08;14.10;;;12.90;;
75171;SDS011;63750;52.418;20.742;2023-05-16T00:55:35;14.10;;;12.90;;
75171;SDS011;63750;52.418;20.742;2023-05-16T00:58:02;14.30;;;13.00;;
75171;SDS011;63750;52.418;20.742;2023-05-16T01:00:30;13.60;;;12.40;;
75171;SDS011;63750;52.418;20.742;2023-05-16T01:02:57;14.70;;;13.30;;
75171;SDS011;63750;52.418;20.742;2023-05-16T01:05:25;15.30;;;13.90;;
75171;SDS011;63750;52.418;20.742;2023-05-16T01:07:54;15.20;;;14.00;;
75171;SDS011;63750;52.418;20.742;2023-05-16T01:10:21;15.50;;;14.20;;
75171;SDS011;63750;52.418;20.742;2023-05-16T01:12:52;15.70;;;14.40;;
75171;SDS011;63750;52.418;20.742;2023-05-16T01:15:34;16.20;;;14.80;;
75171;SDS011;63750;52.418;20.742;2023-05-16T01:18:05;16.70;;;15.20;;
75171;SDS011;63750;52.418;20.742;2023-05-16T01:20:39;17.20;;;15.50;;
75171;SDS011;63750;52.418;20.742;2023-05-16T01:23:18;16.40;;;15.00;;
75171;SDS011;63750;52.418;20.742;2023-05-16T01:26:08;16.50;;;15.10;;
75171;SDS011;63750;52.418;20.742;2023-05-16T01:28:38;18.00;;;16.20;;
75171;SDS011;63750;52.418;20.742;2023-05-16T01:31:06;17.60;;;16.00;;
75171;SDS011;63750;52.418;20.742;2023-05-16T01:33:33;17.60;;;16.00;;
75171;SDS011;63750;52.418;20.742;2023-05-16T01:36:02;17.10;;;15.50;;
75171;SDS011;63750;52.418;20.742;2023-05-16T01:38:38;17.20;;;15.70;;
75171;SDS011;63750;52.418;20.742;2023-05-16T01:41:11;16.90;;;15.50;;
75171;SDS011;63750;52.418;20.742;2023-05-16T01:43:45;16.90;;;15.40;;
75171;SDS011;63750;52.418;20.742;2023-05-16T01:46:18;16.60;;;15.20;;
75171;SDS011;63750;52.418;20.742;2023-05-16T01:48:50;17.10;;;15.60;;
75171;SDS011;63750;52.418;20.742;2023-05-16T01:51:21;18.00;;;16.50;;
75171;SDS011;63750;52.418;20.742;2023-05-16T01:53:52;17.20;;;15.70;;
75171;SDS011;63750;52.418;20.742;2023-05-16T01:56:24;17.70;;;16.10;;
75171;SDS011;63750;52.418;20.742;2023-05-16T01:58:52;17.10;;;15.50;;
75171;SDS011;63750;52.418;20.742;2023-05-16T02:01:20;18.20;;;16.60;;
75171;SDS011;63750;52.418;20.742;2023-05-16T02:03:48;17.00;;;15.50;;
75171;SDS011;63750;52.418;20.742;2023-05-16T02:06:14;16.20;;;14.90;;
75171;SDS011;63750;52.418;20.742;2023-05-16T02:08:41;17.20;;;15.70;;
75171;SDS011;63750;52.418;20.742;2023-05-16T02:11:08;15.80;;;14.40;;
75171;SDS011;63750;52.418;20.742;2023-05-16T02:13:35;14.60;;;13.40;;
75171;SDS011;63750;52.418;20.742;2023-05-16T02:16:02;14.80;;;13.60;;
75171;SDS011;63750;52.418;20.742;2023-05-16T02:18:30;14.30;;;13.20;;
75171;SDS011;63750;52.418;20.742;2023-05-16T02:20:57;14.70;;;13.40;;
75171;SDS011;63750;52.418;20.742;2023-05-16T02:23:24;15.00;;;13.80;;
75171;SDS011;63750;52.418;20.742;2023-05-16T02:25:51;14.10;;;12.90;;
75171;SDS011;63750;52.418;20.742;2023-05-16T02:28:18;15.50;;;14.10;;
75171;SDS011;63750;52.418;20.742;2023-05-16T02:30:45;15.40;;;14.00;;
75171;SDS011;63750;52.418;20.742;2023-05-16T02:33:20;14.70;;;13.40;;
75171;SDS011;63750;52.418;20.742;2023-05-16T02:35:47;15.70;;;14.40;;
75171;SDS011;63750;52.418;20.742;2023-05-16T02:38:14;15.20;;;13.90;;
75171;SDS011;63750;52.418;20.742;2023-05-16T02:40:41;15.40;;;14.20;;
75171;SDS011;63750;52.418;20.742;2023-05-16T02:43:08;15.00;;;13.80;;
75171;SDS011;63750;52.418;20.742;2023-05-16T02:45:35;14.60;;;13.40;;
75171;SDS011;63750;52.418;20.742;2023-05-16T02:48:03;16.20;;;14.80;;
75171;SDS011;63750;52.418;20.742;2023-05-16T02:50:30;16.90;;;15.50;;
75171;SDS011;63750;52.418;20.742;2023-05-16T02:52:57;17.30;;;15.90;;
75171;SDS011;63750;52.418;20.742;2023-05-16T02:55:24;17.20;;;15.70;;
75171;SDS011;63750;52.418;20.742;2023-05-16T02:57:51;16.90;;;15.50;;
75171;SDS011;63750;52.418;20.742;2023-05-16T03:00:19;17.80;;;16.30;;
75171;SDS011;63750;52.418;20.742;2023-05-16T03:02:46;18.50;;;16.90;;
75171;SDS011;63750;52.418;20.742;2023-05-16T03:05:13;19.60;;;18.00;;
75171;SDS011;63750;52.418;20.742;2023-05-16T03:07:40;18.70;;;17.10;;
75171;SDS011;63750;52.418;20.742;2023-05-16T03:10:08;19.50;;;17.80;;
75171;SDS011;63750;52.418;20.742;2023-05-16T03:12:35;19.00;;;17.20;;
75171;SDS011;63750;52.418;20.742;2023-05-16T03:15:03;18.70;;;17.20;;
75171;SDS011;63750;52.418;20.742;2023-05-16T03:17:31;18.40;;;16.80;;
75171;SDS011;63750;52.418;20.742;2023-05-16T03:19:58;17.80;;;16.20;;
75171;SDS011;63750;52.418;20.742;2023-05-16T03:22:25;18.80;;;17.10;;
75171;SDS011;63750;52.418;20.742;2023-05-16T03:24:53;18.80;;;17.10;;
75171;SDS011;63750;52.418;20.742;2023-05-16T03:27:19;19.30;;;17.60;;
75171;SDS011;63750;52.418;20.742;2023-05-16T03:29:47;18.10;;;16.60;;
75171;SDS011;63750;52.418;20.742;2023-05-16T03:32:14;18.70;;;17.10;;
75171;SDS011;63750;52.418;20.742;2023-05-16T03:34:42;16.80;;;15.40;;
75171;SDS011;63750;52.418;20.742;2023-05-16T03:37:09;18.70;;;17.00;;
75171;SDS011;63750;52.418;20.742;2023-05-16T03:39:36;18.10;;;16.40;;
75171;SDS011;63750;52.418;20.742;2023-05-16T03:42:03;17.90;;;16.30;;
75171;SDS011;63750;52.418;20.742;2023-05-16T03:44:30;17.10;;;15.70;;
75171;SDS011;63750;52.418;20.742;2023-05-16T03:46:58;18.30;;;16.70;;
75171;SDS011;63750;52.418;20.742;2023-05-16T03:49:25;17.20;;;15.70;;
75171;SDS011;63750;52.418;20.742;2023-05-16T03:51:52;17.30;;;15.80;;
75171;SDS011;63750;52.418;20.742;2023-05-16T03:54:19;17.00;;;15.60;;
75171;SDS011;63750;52.418;20.742;2023-05-16T03:56:46;17.10;;;15.60;;
75171;SDS011;63750;52.418;20.742;2023-05-16T03:59:13;17.50;;;16.00;;
75171;SDS011;63750;52.418;20.742;2023-05-16T04:01:41;17.10;;;15.60;;
75171;SDS011;63750;52.418;20.742;2023-05-16T04:04:08;17.40;;;16.00;;
75171;SDS011;63750;52.418;20.742;2023-05-16T04:06:35;17.30;;;15.90;;
75171;SDS011;63750;52.418;20.742;2023-05-16T04:09:02;18.20;;;16.60;;
75171;SDS011;63750;52.418;20.742;2023-05-16T04:11:29;19.70;;;17.80;;
75171;SDS011;63750;52.418;20.742;2023-05-16T04:13:56;18.40;;;16.80;;
75171;SDS011;63750;52.418;20.742;2023-05-16T04:16:23;18.20;;;16.60;;
75171;SDS011;63750;52.418;20.742;2023-05-16T04:18:50;16.80;;;15.40;;
75171;SDS011;63750;52.418;20.742;2023-05-16T04:21:17;17.10;;;15.70;;
75171;SDS011;63750;52.418;20.742;2023-05-16T04:23:44;17.40;;;16.00;;
75171;SDS011;63750;52.418;20.742;2023-05-16T04:26:11;15.90;;;14.70;;
75171;SDS011;63750;52.418;20.742;2023-05-16T04:28:38;16.50;;;15.00;;
75171;SDS011;63750;52.418;20.742;2023-05-16T04:31:05;15.90;;;14.60;;
75171;SDS011;63750;52.418;20.742;2023-05-16T04:33:32;15.70;;;14.20;;
75171;SDS011;63750;52.418;20.742;2023-05-16T04:35:59;15.40;;;14.10;;
75171;SDS011;63750;52.418;20.742;2023-05-16T04:38:26;15.30;;;14.00;;
75171;SDS011;63750;52.418;20.742;2023-05-16T04:40:53;14.30;;;13.20;;
75171;SDS011;63750;52.418;20.742;2023-05-16T04:43:20;15.00;;;13.80;;
75171;SDS011;63750;52.418;20.742;2023-05-16T04:45:47;14.60;;;13.30;;
75171;SDS011;63750;52.418;20.742;2023-05-16T04:48:14;15.60;;;14.20;;
75171;SDS011;63750;52.418;20.742;2023-05-16T04:50:41;15.50;;;14.10;;
75171;SDS011;63750;52.418;20.742;2023-05-16T04:53:08;15.10;;;13.90;;
75171;SDS011;63750;52.418;20.742;2023-05-16T04:55:35;15.70;;;14.40;;
75171;SDS011;63750;52.418;20.742;2023-05-16T04:58:02;15.20;;;14.00;;
75171;SDS011;63750;52.418;20.742;2023-05-16T05:00:29;15.60;;;14.30;;
75171;SDS011;63750;52.418;20.742;2023-05-16T05:02:56;15.80;;;14.50;;
75171;SDS011;63750;52.418;20.742;2023-05-16T05:05:23;17.40;;;15.90;;
75171;SDS011;63750;52.418;20.742;2023-05-16T05:07:50;16.90;;;15.50;;
75171;SDS011;63750;52.418;20.742;2023-05-16T05:10:17;18.10;;;16.40;;
75171;SDS011;63750;52.418;20.742;2023-05-16T05:12:44;17.90;;;16.40;;
75171;SDS011;63750;52.418;20.742;2023-05-16T05:15:11;17.40;;;15.90;;
75171;SDS011;63750;52.418;20.742;2023-05-16T05:17:38;17.80;;;16.30;;
75171;SDS011;63750;52.418;20.742;2023-05-16T05:20:06;19.30;;;17.70;;
75171;SDS011;63750;52.418;20.742;2023-05-16T05:22:35;19.10;;;17.40;;
75171;SDS011;63750;52.418;20.742;2023-05-16T05:25:02;18.70;;;17.10;;
75171;SDS011;63750;52.418;20.742;2023-05-16T05:27:30;19.80;;;18.00;;
75171;SDS011;63750;52.418;20.742;2023-05-16T05:29:57;19.00;;;17.40;;
75171;SDS011;63750;52.418;20.742;2023-05-16T05:32:24;20.10;;;18.50;;
75171;SDS011;63750;52.418;20.742;2023-05-16T05:34:51;19.20;;;17.70;;
75171;SDS011;63750;52.418;20.742;2023-05-16T05:37:18;19.30;;;17.70;;
75171;SDS011;63750;52.418;20.742;2023-05-16T05:39:45;19.50;;;17.90;;
75171;SDS011;63750;52.418;20.742;2023-05-16T05:42:12;20.20;;;18.50;;
75171;SDS011;63750;52.418;20.742;2023-05-16T05:44:39;20.00;;;18.30;;
75171;SDS011;63750;52.418;20.742;2023-05-16T05:47:07;19.40;;;17.70;;
75171;SDS011;63750;52.418;20.742;2023-05-16T05:49:34;18.80;;;17.30;;
75171;SDS011;63750;52.418;20.742;2023-05-16T05:52:01;18.50;;;17.00;;
75171;SDS011;63750;52.418;20.742;2023-05-16T05:54:28;17.70;;;16.30;;
75171;SDS011;63750;52.418;20.742;2023-05-16T05:56:56;16.60;;;15.30;;
75171;SDS011;63750;52.418;20.742;2023-05-16T05:59:23;16.80;;;15.50;;
75171;SDS011;63750;52.418;20.742;2023-05-16T06:01:50;17.20;;;15.80;;
75171;SDS011;63750;52.418;20.742;2023-05-16T06:04:17;15.30;;;14.10;;
75171;SDS011;63750;52.418;20.742;2023-05-16T06:06:45;16.30;;;14.90;;
75171;SDS011;63750;52.418;20.742;2023-05-16T06:09:12;15.40;;;14.10;;
75171;SDS011;63750;52.418;20.742;2023-05-16T06:11:39;15.40;;;14.20;;
75171;SDS011;63750;52.418;20.742;2023-05-16T06:14:06;15.00;;;13.80;;
75171;SDS011;63750;52.418;20.742;2023-05-16T06:16:33;15.70;;;14.40;;
75171;SDS011;63750;52.418;20.742;2023-05-16T06:19:00;14.70;;;13.50;;
75171;SDS011;63750;52.418;20.742;2023-05-16T06:21:27;15.10;;;13.70;;
75171;SDS011;63750;52.418;20.742;2023-05-16T06:23:54;15.00;;;13.90;;
75171;SDS011;63750;52.418;20.742;2023-05-16T06:26:21;14.80;;;13.70;;
75171;SDS011;63750;52.418;20.742;2023-05-16T06:28:48;15.10;;;14.00;;
75171;SDS011;63750;52.418;20.742;2023-05-16T06:31:16;14.90;;;13.70;;
75171;SDS011;63750;52.418;20.742;2023-05-16T06:33:42;13.70;;;12.70;;
75171;SDS011;63750;52.418;20.742;2023-05-16T06:36:09;14.50;;;13.40;;
75171;SDS011;63750;52.418;20.742;2023-05-16T06:38:36;14.00;;;12.90;;
75171;SDS011;63750;52.418;20.742;2023-05-16T06:41:03;14.30;;;13.20;;
75171;SDS011;63750;52.418;20.742;2023-05-16T06:43:30;13.30;;;12.30;;
75171;SDS011;63750;52.418;20.742;2023-05-16T06:45:57;14.00;;;12.80;;
75171;SDS011;63750;52.418;20.742;2023-05-16T06:48:24;13.50;;;12.50;;
75171;SDS011;63750;52.418;20.742;2023-05-16T06:50:51;13.50;;;12.40;;
75171;SDS011;63750;52.418;20.742;2023-05-16T06:53:18;12.30;;;11.30;;
75171;SDS011;63750;52.418;20.742;2023-05-16T06:55:45;11.00;;;10.20;;
75171;SDS011;63750;52.418;20.742;2023-05-16T06:58:12;10.20;;;9.40;;
75171;SDS011;63750;52.418;20.742;2023-05-16T07:00:40;9.40;;;8.60;;
75171;SDS011;63750;52.418;20.742;2023-05-16T07:03:07;9.80;;;8.90;;
75171;SDS011;63750;52.418;20.742;2023-05-16T07:05:34;8.60;;;7.90;;
75171;SDS011;63750;52.418;20.742;2023-05-16T07:08:00;8.80;;;8.00;;
75171;SDS011;63750;52.418;20.742;2023-05-16T07:10:27;9.50;;;8.80;;
75171;SDS011;63750;52.418;20.742;2023-05-16T07:12:55;9.40;;;8.70;;
75171;SDS011;63750;52.418;20.742;2023-05-16T07:15:22;10.20;;;9.40;;
75171;SDS011;63750;52.418;20.742;2023-05-16T07:17:49;9.50;;;8.80;;
75171;SDS011;63750;52.418;20.742;2023-05-16T07:20:16;9.90;;;9.10;;
75171;SDS011;63750;52.418;20.742;2023-05-16T07:22:43;9.90;;;9.10;;
75171;SDS011;63750;52.418;20.742;2023-05-16T07:25:10;11.00;;;10.20;;
75171;SDS011;63750;52.418;20.742;2023-05-16T07:27:37;10.40;;;9.70;;
75171;SDS011;63750;52.418;20.742;2023-05-16T07:30:05;9.60;;;8.90;;
75171;SDS011;63750;52.418;20.742;2023-05-16T07:32:33;9.30;;;8.50;;
75171;SDS011;63750;52.418;20.742;2023-05-16T07:35:00;9.10;;;8.40;;
75171;SDS011;63750;52.418;20.742;2023-05-16T07:37:27;8.60;;;7.90;;
75171;SDS011;63750;52.418;20.742;2023-05-16T07:39:54;9.60;;;8.80;;
75171;SDS011;63750;52.418;20.742;2023-05-16T07:42:21;8.60;;;7.90;;
75171;SDS011;63750;52.418;20.742;2023-05-16T07:44:48;8.10;;;7.50;;
75171;SDS011;63750;52.418;20.742;2023-05-16T07:47:15;8.90;;;8.10;;
75171;SDS011;63750;52.418;20.742;2023-05-16T07:49:42;8.60;;;7.80;;
75171;SDS011;63750;52.418;20.742;2023-05-16T07:52:10;8.90;;;8.10;;
75171;SDS011;63750;52.418;20.742;2023-05-16T07:54:37;8.60;;;8.00;;
75171;SDS011;63750;52.418;20.742;2023-05-16T07:57:04;8.10;;;7.50;;
75171;SDS011;63750;52.418;20.742;2023-05-16T07:59:31;8.80;;;7.90;;
75171;SDS011;63750;52.418;20.742;2023-05-16T08:01:58;7.80;;;7.20;;
75171;SDS011;63750;52.418;20.742;2023-05-16T08:04:25;8.50;;;7.70;;
75171;SDS011;63750;52.418;20.742;2023-05-16T08:06:52;7.50;;;7.00;;
75171;SDS011;63750;52.418;20.742;2023-05-16T08:09:19;7.70;;;7.10;;
75171;SDS011;63750;52.418;20.742;2023-05-16T08:11:46;7.30;;;6.70;;
75171;SDS011;63750;52.418;20.742;2023-05-16T08:14:13;6.70;;;6.20;;
75171;SDS011;63750;52.418;20.742;2023-05-16T08:16:40;6.70;;;6.20;;
75171;SDS011;63750;52.418;20.742;2023-05-16T08:19:07;6.60;;;6.10;;
75171;SDS011;63750;52.418;20.742;2023-05-16T08:21:34;6.10;;;5.60;;
75171;SDS011;63750;52.418;20.742;2023-05-16T08:24:01;6.10;;;5.60;;
75171;SDS011;63750;52.418;20.742;2023-05-16T08:26:29;5.90;;;5.40;;
75171;SDS011;63750;52.418;20.742;2023-05-16T08:28:56;7.10;;;5.40;;
75171;SDS011;63750;52.418;20.742;2023-05-16T08:31:23;5.70;;;5.30;;
75171;SDS011;63750;52.418;20.742;2023-05-16T08:33:51;5.30;;;4.90;;
75171;SDS011;63750;52.418;20.742;2023-05-16T08:36:17;5.20;;;4.80;;
75171;SDS011;63750;52.418;20.742;2023-05-16T08:38:44;4.50;;;4.20;;
75171;SDS011;63750;52.418;20.742;2023-05-16T08:41:11;5.30;;;4.90;;
75171;SDS011;63750;52.418;20.742;2023-05-16T08:43:38;5.30;;;4.90;;
75171;SDS011;63750;52.418;20.742;2023-05-16T08:46:06;6.20;;;5.60;;
75171;SDS011;63750;52.418;20.742;2023-05-16T08:48:34;5.50;;;5.10;;
75171;SDS011;63750;52.418;20.742;2023-05-16T08:51:04;5.60;;;5.20;;
75171;SDS011;63750;52.418;20.742;2023-05-16T08:53:35;5.10;;;4.70;;
75171;SDS011;63750;52.418;20.742;2023-05-16T08:56:06;6.20;;;5.30;;
75171;SDS011;63750;52.418;20.742;2023-05-16T08:58:34;6.10;;;5.60;;
75171;SDS011;63750;52.418;20.742;2023-05-16T09:01:01;5.40;;;5.00;;
75171;SDS011;63750;52.418;20.742;2023-05-16T09:03:29;5.30;;;4.90;;
75171;SDS011;63750;52.418;20.742;2023-05-16T09:05:56;5.40;;;5.00;;
75171;SDS011;63750;52.418;20.742;2023-05-16T09:08:24;5.50;;;5.10;;
75171;SDS011;63750;52.418;20.742;2023-05-16T09:10:51;4.90;;;4.50;;
75171;SDS011;63750;52.418;20.742;2023-05-16T09:13:18;5.80;;;5.30;;
75171;SDS011;63750;52.418;20.742;2023-05-16T09:15:45;5.30;;;4.90;;
75171;SDS011;63750;52.418;20.742;2023-05-16T09:18:37;5.20;;;4.90;;
75171;SDS011;63750;52.418;20.742;2023-05-16T09:21:04;5.20;;;4.80;;
75171;SDS011;63750;52.418;20.742;2023-05-16T09:23:31;5.90;;;5.30;;
75171;SDS011;63750;52.418;20.742;2023-05-16T09:25:59;4.70;;;4.40;;
75171;SDS011;63750;52.418;20.742;2023-05-16T09:28:26;4.70;;;4.30;;
75171;SDS011;63750;52.418;20.742;2023-05-16T09:30:53;5.10;;;4.70;;
75171;SDS011;63750;52.418;20.742;2023-05-16T09:33:21;4.90;;;4.50;;
75171;SDS011;63750;52.418;20.742;2023-05-16T09:35:54;4.80;;;4.40;;
75171;SDS011;63750;52.418;20.742;2023-05-16T09:38:22;4.80;;;4.50;;
75171;SDS011;63750;52.418;20.742;2023-05-16T09:40:50;5.00;;;4.60;;
75171;SDS011;63750;52.418;20.742;2023-05-16T09:43:19;4.20;;;3.90;;
75171;SDS011;63750;52.418;20.742;2023-05-16T09:45:48;4.60;;;4.20;;
75171;SDS011;63750;52.418;20.742;2023-05-16T09:48:15;4.20;;;3.90;;
75171;SDS011;63750;52.418;20.742;2023-05-16T09:50:46;4.50;;;4.10;;
75171;SDS011;63750;52.418;20.742;2023-05-16T09:53:14;4.70;;;4.40;;
75171;SDS011;63750;52.418;20.742;2023-05-16T09:55:41;5.00;;;4.50;;
75171;SDS011;63750;52.418;20.742;2023-05-16T09:58:08;4.90;;;4.50;;
75171;SDS011;63750;52.418;20.742;2023-05-16T10:00:35;4.60;;;4.30;;
75171;SDS011;63750;52.418;20.742;2023-05-16T10:03:04;4.50;;;4.20;;
75171;SDS011;63750;52.418;20.742;2023-05-16T10:05:32;4.80;;;4.40;;
75171;SDS011;63750;52.418;20.742;2023-05-16T10:08:01;4.40;;;4.00;;
75171;SDS011;63750;52.418;20.742;2023-05-16T10:10:30;4.80;;;4.40;;
75171;SDS011;63750;52.418;20.742;2023-05-16T10:13:01;4.70;;;4.40;;
75171;SDS011;63750;52.418;20.742;2023-05-16T10:15:31;4.40;;;4.10;;
75171;SDS011;63750;52.418;20.742;2023-05-16T10:18:00;4.40;;;4.10;;
75171;SDS011;63750;52.418;20.742;2023-05-16T10:20:28;6.90;;;6.40;;
75171;SDS011;63750;52.418;20.742;2023-05-16T10:22:55;5.00;;;4.60;;
75171;SDS011;63750;52.418;20.742;2023-05-16T10:25:26;5.20;;;4.80;;
75171;SDS011;63750;52.418;20.742;2023-05-16T10:27:57;5.00;;;4.60;;
75171;SDS011;63750;52.418;20.742;2023-05-16T10:30:25;5.00;;;4.60;;
75171;SDS011;63750;52.418;20.742;2023-05-16T10:32:53;5.60;;;5.20;;
75171;SDS011;63750;52.418;20.742;2023-05-16T10:35:21;5.40;;;4.90;;
75171;SDS011;63750;52.418;20.742;2023-05-16T10:37:48;5.10;;;4.50;;
75171;SDS011;63750;52.418;20.742;2023-05-16T10:40:17;4.90;;;4.50;;
75171;SDS011;63750;52.418;20.742;2023-05-16T10:42:54;5.30;;;4.80;;
75171;SDS011;63750;52.418;20.742;2023-05-16T10:45:22;5.20;;;4.80;;
75171;SDS011;63750;52.418;20.742;2023-05-16T10:47:53;5.10;;;4.60;;
75171;SDS011;63750;52.418;20.742;2023-05-16T10:50:34;4.80;;;4.30;;
75171;SDS011;63750;52.418;20.742;2023-05-16T10:53:13;5.00;;;4.60;;
75171;SDS011;63750;52.418;20.742;2023-05-16T10:55:44;4.80;;;4.50;;
75171;SDS011;63750;52.418;20.742;2023-05-16T10:58:17;4.80;;;4.40;;
75171;SDS011;63750;52.418;20.742;2023-05-16T11:00:48;4.90;;;4.50;;
75171;SDS011;63750;52.418;20.742;2023-05-16T11:03:35;5.10;;;4.70;;
75171;SDS011;63750;52.418;20.742;2023-05-16T11:06:03;5.90;;;4.20;;
75171;SDS011;63750;52.418;20.742;2023-05-16T11:08:30;5.10;;;4.70;;
75171;SDS011;63750;52.418;20.742;2023-05-16T11:14:04;4.70;;;4.40;;
75171;SDS011;63750;52.418;20.742;2023-05-16T11:16:32;4.90;;;4.50;;
75171;SDS011;63750;52.418;20.742;2023-05-16T11:19:03;4.80;;;4.50;;
75171;SDS011;63750;52.418;20.742;2023-05-16T11:24:30;4.50;;;4.10;;
75171;SDS011;63750;52.418;20.742;2023-05-16T11:26:57;5.00;;;4.60;;
75171;SDS011;63750;52.418;20.742;2023-05-16T11:29:25;4.90;;;4.50;;
75171;SDS011;63750;52.418;20.742;2023-05-16T11:31:57;5.50;;;5.00;;
75171;SDS011;63750;52.418;20.742;2023-05-16T11:34:24;5.20;;;4.70;;
75171;SDS011;63750;52.418;20.742;2023-05-16T11:36:51;5.00;;;4.60;;
75171;SDS011;63750;52.418;20.742;2023-05-16T11:39:18;4.40;;;4.10;;
75171;SDS011;63750;52.418;20.742;2023-05-16T11:41:46;4.90;;;4.40;;
75171;SDS011;63750;52.418;20.742;2023-05-16T11:44:12;4.80;;;4.50;;
75171;SDS011;63750;52.418;20.742;2023-05-16T11:46:39;5.80;;;4.90;;
75171;SDS011;63750;52.418;20.742;2023-05-16T11:49:07;4.90;;;4.50;;
75171;SDS011;63750;52.418;20.742;2023-05-16T11:51:37;4.70;;;4.30;;
75171;SDS011;63750;52.418;20.742;2023-05-16T11:54:04;4.50;;;4.20;;
75171;SDS011;63750;52.418;20.742;2023-05-16T11:56:32;4.60;;;4.00;;
75171;SDS011;63750;52.418;20.742;2023-05-16T11:59:00;4.60;;;4.30;;
75171;SDS011;63750;52.418;20.742;2023-05-16T12:01:31;5.20;;;4.50;;
75171;SDS011;63750;52.418;20.742;2023-05-16T12:03:59;4.70;;;4.30;;
75171;SDS011;63750;52.418;20.742;2023-05-16T12:06:26;4.60;;;4.30;;
75171;SDS011;63750;52.418;20.742;2023-05-16T12:08:53;4.60;;;4.30;;
75171;SDS011;63750;52.418;20.742;2023-05-16T12:11:21;4.50;;;4.10;;
75171;SDS011;63750;52.418;20.742;2023-05-16T12:13:49;4.50;;;4.10;;
75171;SDS011;63750;52.418;20.742;2023-05-16T12:16:16;4.10;;;3.80;;
75171;SDS011;63750;52.418;20.742;2023-05-16T12:18:44;5.00;;;4.60;;
75171;SDS011;63750;52.418;20.742;2023-05-16T12:21:11;4.20;;;3.90;;
75171;SDS011;63750;52.418;20.742;2023-05-16T12:23:39;5.20;;;3.90;;
75171;SDS011;63750;52.418;20.742;2023-05-16T12:26:07;4.30;;;4.00;;
75171;SDS011;63750;52.418;20.742;2023-05-16T12:28:34;4.30;;;4.00;;
75171;SDS011;63750;52.418;20.742;2023-05-16T12:31:01;4.90;;;4.60;;
75171;SDS011;63750;52.418;20.742;2023-05-16T12:33:28;4.70;;;4.30;;
75171;SDS011;63750;52.418;20.742;2023-05-16T12:35:55;4.90;;;4.50;;
75171;SDS011;63750;52.418;20.742;2023-05-16T12:38:24;4.50;;;4.20;;
75171;SDS011;63750;52.418;20.742;2023-05-16T12:40:56;4.90;;;4.60;;
75171;SDS011;63750;52.418;20.742;2023-05-16T12:43:23;4.80;;;4.40;;
75171;SDS011;63750;52.418;20.742;2023-05-16T12:45:51;4.20;;;3.90;;
75171;SDS011;63750;52.418;20.742;2023-05-16T12:48:19;6.50;;;5.60;;
75171;SDS011;63750;52.418;20.742;2023-05-16T12:50:46;6.00;;;5.40;;
75171;SDS011;63750;52.418;20.742;2023-05-16T12:53:14;5.00;;;4.60;;
75171;SDS011;63750;52.418;20.742;2023-05-16T12:55:43;4.60;;;4.20;;
75171;SDS011;63750;52.418;20.742;2023-05-16T12:58:10;4.90;;;4.50;;
75171;SDS011;63750;52.418;20.742;2023-05-16T13:00:37;4.80;;;4.40;;
75171;SDS011;63750;52.418;20.742;2023-05-16T13:03:04;4.70;;;4.40;;
75171;SDS011;63750;52.418;20.742;2023-05-16T13:05:31;4.20;;;3.90;;
75171;SDS011;63750;52.418;20.742;2023-05-16T13:07:58;4.20;;;3.90;;
75171;SDS011;63750;52.418;20.742;2023-05-16T13:10:26;4.40;;;4.00;;
75171;SDS011;63750;52.418;20.742;2023-05-16T13:12:53;4.30;;;4.00;;
75171;SDS011;63750;52.418;20.742;2023-05-16T13:15:20;3.90;;;3.50;;
75171;SDS011;63750;52.418;20.742;2023-05-16T13:17:47;4.00;;;3.70;;
75171;SDS011;63750;52.418;20.742;2023-05-16T13:20:14;4.90;;;4.50;;
75171;SDS011;63750;52.418;20.742;2023-05-16T13:22:42;4.00;;;3.70;;
75171;SDS011;63750;52.418;20.742;2023-05-16T13:25:10;4.90;;;4.50;;
75171;SDS011;63750;52.418;20.742;2023-05-16T13:27:37;4.60;;;4.20;;
75171;SDS011;63750;52.418;20.742;2023-05-16T13:30:05;4.10;;;3.80;;
75171;SDS011;63750;52.418;20.742;2023-05-16T13:32:33;4.90;;;4.50;;
75171;SDS011;63750;52.418;20.742;2023-05-16T13:35:00;4.80;;;4.30;;
75171;SDS011;63750;52.418;20.742;2023-05-16T13:37:28;4.50;;;4.10;;
75171;SDS011;63750;52.418;20.742;2023-05-16T13:39:55;4.60;;;4.20;;
75171;SDS011;63750;52.418;20.742;2023-05-16T13:42:21;4.50;;;4.10;;
75171;SDS011;63750;52.418;20.742;2023-05-16T13:44:49;4.20;;;3.90;;
75171;SDS011;63750;52.418;20.742;2023-05-16T13:47:16;4.40;;;4.00;;
75171;SDS011;63750;52.418;20.742;2023-05-16T13:49:43;4.20;;;3.90;;
75171;SDS011;63750;52.418;20.742;2023-05-16T13:52:10;4.50;;;4.20;;
75171;SDS011;63750;52.418;20.742;2023-05-16T13:54:37;4.20;;;3.90;;
75171;SDS011;63750;52.418;20.742;2023-05-16T13:57:04;4.20;;;3.90;;
75171;SDS011;63750;52.418;20.742;2023-05-16T13:59:31;4.50;;;4.20;;
75171;SDS011;63750;52.418;20.742;2023-05-16T14:01:58;4.10;;;3.80;;
75171;SDS011;63750;52.418;20.742;2023-05-16T14:04:25;4.20;;;3.90;;
75171;SDS011;63750;52.418;20.742;2023-05-16T14:06:52;4.20;;;3.90;;
75171;SDS011;63750;52.418;20.742;2023-05-16T14:09:19;4.60;;;3.90;;
75171;SDS011;63750;52.418;20.742;2023-05-16T14:11:46;4.00;;;3.70;;
75171;SDS011;63750;52.418;20.742;2023-05-16T14:14:13;4.80;;;4.10;;
75171;SDS011;63750;52.418;20.742;2023-05-16T14:16:40;5.00;;;4.50;;
75171;SDS011;63750;52.418;20.742;2023-05-16T14:19:07;4.60;;;4.10;;
75171;SDS011;63750;52.418;20.742;2023-05-16T14:21:34;4.00;;;3.70;;
75171;SDS011;63750;52.418;20.742;2023-05-16T14:24:01;4.20;;;3.90;;
75171;SDS011;63750;52.418;20.742;2023-05-16T14:26:28;4.90;;;4.00;;
75171;SDS011;63750;52.418;20.742;2023-05-16T14:28:55;4.40;;;4.10;;
75171;SDS011;63750;52.418;20.742;2023-05-16T14:31:22;4.70;;;4.30;;